createdAt,value
2022-12-01T00:01:39.377Z,1.40
2022-12-01T00:04:07.400Z,1.40
2022-12-01T00:06:35.556Z,1.40
2022-12-01T00:09:20.831Z,1.40
2022-12-01T00:11:49.553Z,1.50
2022-12-01T00:14:17.647Z,1.50
2022-12-01T00:16:47.268Z,1.50
2022-12-01T00:19:15.339Z,1.40
2022-12-01T00:21:43.333Z,1.40
2022-12-01T00:24:12.594Z,1.40
2022-12-01T00:26:40.712Z,1.40
2022-12-01T00:29:08.850Z,1.40
2022-12-01T00:31:37.378Z,1.40
2022-12-01T00:34:11.286Z,1.40
2022-12-01T00:36:40.786Z,1.40
2022-12-01T00:39:09.416Z,1.40
2022-12-01T00:41:37.435Z,1.40
2022-12-01T00:44:06.129Z,1.50
2022-12-01T00:46:34.769Z,1.50
2022-12-01T00:49:03.242Z,1.60
2022-12-01T00:51:32.967Z,1.50
2022-12-01T00:54:01.021Z,1.60
2022-12-01T00:56:29.131Z,1.60
2022-12-01T00:58:57.174Z,1.60
2022-12-01T01:01:25.750Z,1.60
2022-12-01T01:03:54.142Z,1.60
2022-12-01T01:06:22.219Z,1.60
2022-12-01T01:08:55.577Z,1.60
2022-12-01T01:11:23.674Z,1.50
2022-12-01T01:13:52.101Z,1.60
2022-12-01T01:16:21.850Z,1.60
2022-12-01T01:18:50.064Z,1.60
2022-12-01T01:21:20.954Z,1.60
2022-12-01T01:23:52.511Z,1.60
2022-12-01T01:26:24.699Z,1.60
2022-12-01T01:28:53.353Z,1.60
2022-12-01T01:31:23.124Z,1.60
2022-12-01T01:33:51.743Z,1.70
2022-12-01T01:36:20.642Z,1.50
2022-12-01T01:38:51.480Z,1.60
2022-12-01T01:41:21.633Z,1.60
2022-12-01T01:43:52.268Z,1.70
2022-12-01T01:46:22.605Z,1.70
2022-12-01T01:48:53.842Z,1.70
2022-12-01T01:51:25.171Z,1.70
2022-12-01T01:53:57.669Z,1.70
2022-12-01T01:56:29.561Z,1.70
2022-12-01T01:58:58.354Z,1.70
2022-12-01T02:01:29.610Z,1.70
2022-12-01T02:03:57.951Z,1.60
2022-12-01T02:06:26.122Z,1.60
2022-12-01T02:08:54.536Z,1.60
2022-12-01T02:11:48.539Z,1.60
2022-12-01T02:14:42.523Z,1.60
2022-12-01T02:17:22.006Z,1.60
2022-12-01T02:20:19.335Z,1.60
2022-12-01T02:23:03.891Z,1.60
2022-12-01T02:25:46.920Z,1.60
2022-12-01T02:28:42.524Z,1.70
2022-12-01T02:31:17.476Z,1.60
2022-12-01T02:33:52.442Z,1.70
2022-12-01T02:36:30.415Z,1.60
2022-12-01T02:39:06.852Z,1.60
2022-12-01T02:41:39.760Z,1.60
2022-12-01T02:44:14.002Z,1.60
2022-12-01T02:46:47.025Z,1.70
2022-12-01T02:49:18.746Z,1.70
2022-12-01T02:51:47.804Z,1.70
2022-12-01T02:54:19.034Z,1.70
2022-12-01T02:56:47.377Z,1.80
2022-12-01T02:59:16.309Z,1.70
2022-12-01T03:02:10.592Z,1.70
2022-12-01T03:04:56.300Z,1.70
2022-12-01T03:07:44.255Z,1.70
2022-12-01T03:10:24.044Z,1.70
2022-12-01T03:13:02.613Z,1.80
2022-12-01T03:15:36.823Z,1.90
2022-12-01T03:18:16.856Z,1.80
2022-12-01T03:20:51.805Z,1.80
2022-12-01T03:23:25.098Z,1.80
2022-12-01T03:25:56.102Z,1.90
2022-12-01T03:28:30.170Z,1.80
2022-12-01T03:31:02.234Z,1.90
2022-12-01T03:33:36.173Z,1.90
2022-12-01T03:36:08.162Z,1.90
2022-12-01T03:38:38.385Z,1.90
2022-12-01T03:41:10.469Z,1.90
2022-12-01T03:43:43.294Z,1.90
2022-12-01T03:46:17.619Z,1.90
2022-12-01T03:48:47.473Z,1.90
2022-12-01T03:51:20.546Z,1.90
2022-12-01T03:53:55.850Z,1.80
2022-12-01T03:56:28.642Z,1.90
2022-12-01T03:58:59.026Z,1.90
2022-12-01T04:01:32.663Z,1.90
2022-12-01T04:04:10.497Z,1.90
2022-12-01T04:06:40.168Z,1.90
2022-12-01T04:09:08.215Z,2.00
2022-12-01T04:11:53.819Z,1.90
2022-12-01T04:14:22.573Z,1.90
2022-12-01T04:16:50.575Z,2.00
2022-12-01T04:19:19.968Z,2.00
2022-12-01T04:21:48.064Z,1.90
2022-12-01T04:24:16.116Z,2.00
2022-12-01T04:26:46.709Z,1.90
2022-12-01T04:29:15.247Z,1.90
2022-12-01T04:31:43.268Z,1.90
2022-12-01T04:34:12.081Z,1.90
2022-12-01T04:36:41.452Z,1.90
2022-12-01T04:39:09.609Z,1.90
2022-12-01T04:41:37.578Z,1.80
2022-12-01T04:44:05.794Z,1.90
2022-12-01T04:46:33.917Z,1.90
2022-12-01T04:49:01.896Z,2.00
2022-12-01T04:51:30.840Z,1.90
2022-12-01T04:54:00.245Z,1.80
2022-12-01T04:56:28.344Z,1.90
2022-12-01T04:58:56.429Z,1.90
2022-12-01T05:01:25.848Z,1.80
2022-12-01T05:03:54.280Z,1.80
2022-12-01T05:06:24.816Z,1.80
2022-12-01T05:08:55.502Z,1.90
2022-12-01T05:11:25.816Z,1.90
2022-12-01T05:13:55.938Z,1.90
2022-12-01T05:16:26.720Z,1.90
2022-12-01T05:19:17.244Z,2.00
2022-12-01T05:21:45.611Z,1.90
2022-12-01T05:24:20.478Z,2.00
2022-12-01T05:26:50.628Z,2.00
2022-12-01T05:29:18.717Z,2.00
2022-12-01T05:31:47.296Z,2.00
2022-12-01T05:34:15.479Z,2.00
2022-12-01T05:36:43.543Z,2.00
2022-12-01T05:39:14.528Z,2.00
2022-12-01T05:41:42.540Z,2.00
2022-12-01T05:44:11.846Z,2.00
2022-12-01T05:46:41.507Z,2.00
2022-12-01T05:49:09.476Z,2.00
2022-12-01T05:51:37.864Z,2.00
2022-12-01T05:54:06.182Z,2.00
2022-12-01T05:56:34.217Z,2.00
2022-12-01T05:59:02.283Z,2.00
2022-12-01T06:01:31.662Z,2.00
2022-12-01T06:04:00.129Z,1.90
2022-12-01T06:06:28.250Z,1.90
2022-12-01T06:08:56.336Z,1.90
2022-12-01T06:11:26.234Z,1.90
2022-12-01T06:13:54.250Z,1.90
2022-12-01T06:16:22.485Z,1.90
2022-12-01T06:18:51.911Z,1.80
2022-12-01T06:21:20.020Z,1.80
2022-12-01T06:23:47.983Z,1.80
2022-12-01T06:26:15.988Z,1.90
2022-12-01T06:28:46.589Z,1.80
2022-12-01T06:31:14.839Z,1.80
2022-12-01T06:33:43.173Z,1.90
2022-12-01T06:36:12.804Z,1.90
2022-12-01T06:38:41.339Z,1.80
2022-12-01T06:41:11.565Z,1.80
2022-12-01T06:43:39.781Z,1.90
2022-12-01T06:46:08.136Z,1.80
2022-12-01T06:48:36.145Z,1.90
2022-12-01T06:51:04.591Z,1.90
2022-12-01T06:53:34.804Z,1.90
2022-12-01T06:56:03.147Z,1.90
2022-12-01T06:58:31.860Z,1.90
2022-12-01T07:01:00.279Z,2.00
2022-12-01T07:03:32.536Z,2.00
2022-12-01T07:06:02.524Z,1.90
2022-12-01T07:08:31.547Z,1.90
2022-12-01T07:11:02.785Z,1.90
2022-12-01T07:13:33.791Z,2.00
2022-12-01T07:16:03.068Z,2.00
2022-12-01T07:18:34.883Z,1.90
2022-12-01T07:21:07.110Z,2.00
2022-12-01T07:23:37.623Z,2.00
2022-12-01T07:26:08.963Z,2.00
2022-12-01T07:28:37.008Z,2.00
2022-12-01T07:31:06.440Z,1.90
2022-12-01T07:33:34.915Z,1.90
2022-12-01T07:36:05.659Z,1.90
2022-12-01T07:38:35.102Z,2.00
2022-12-01T07:41:04.069Z,2.00
2022-12-01T07:43:34.204Z,1.90
2022-12-01T07:46:07.406Z,2.00
2022-12-01T07:48:35.791Z,2.00
2022-12-01T07:51:04.561Z,2.00
2022-12-01T07:53:32.652Z,2.10
2022-12-01T07:56:04.328Z,2.10
2022-12-01T07:58:38.604Z,2.10
2022-12-01T08:01:11.944Z,2.20
2022-12-01T08:03:40.496Z,2.30
2022-12-01T08:06:09.407Z,2.30
2022-12-01T08:08:39.764Z,2.30
2022-12-01T08:11:11.160Z,2.40
2022-12-01T08:13:41.085Z,2.40
2022-12-01T08:16:11.655Z,2.30
2022-12-01T08:18:41.628Z,2.20
2022-12-01T08:21:13.796Z,2.20
2022-12-01T08:23:42.744Z,2.30
2022-12-01T08:26:13.966Z,2.40
2022-12-01T08:28:44.389Z,2.50
2022-12-01T08:31:15.152Z,2.50
2022-12-01T08:33:43.489Z,2.70
2022-12-01T08:36:11.582Z,2.50
2022-12-01T08:38:39.632Z,2.50
2022-12-01T08:41:10.554Z,2.50
2022-12-01T08:46:32.616Z,2.50
2022-12-01T08:49:00.903Z,2.60
2022-12-01T08:51:33.386Z,2.60
2022-12-01T08:54:05.638Z,2.60
2022-12-01T08:56:36.208Z,2.70
2022-12-01T08:59:04.390Z,2.70
2022-12-01T09:01:34.740Z,2.70
2022-12-01T09:04:09.236Z,2.60
2022-12-01T09:06:41.399Z,2.70
2022-12-01T09:09:16.238Z,2.60
2022-12-01T09:11:45.494Z,2.60
2022-12-01T09:14:14.707Z,2.50
2022-12-01T09:16:46.287Z,2.50
2022-12-01T09:19:24.748Z,2.50
2022-12-01T09:21:55.717Z,2.50
2022-12-01T09:24:24.878Z,2.60
2022-12-01T09:26:58.103Z,2.60
2022-12-01T09:29:28.772Z,2.70
2022-12-01T09:31:59.959Z,2.60
2022-12-01T09:34:28.988Z,2.60
2022-12-01T09:36:58.569Z,2.70
2022-12-01T09:39:27.180Z,2.60
2022-12-01T09:41:58.766Z,2.70
2022-12-01T09:44:45.578Z,2.80
2022-12-01T09:47:20.960Z,2.70
2022-12-01T09:49:57.709Z,2.70
2022-12-01T09:52:29.884Z,2.70
2022-12-01T09:55:00.919Z,2.60
2022-12-01T09:57:32.887Z,2.70
2022-12-01T10:00:03.543Z,2.70
2022-12-01T10:02:36.644Z,2.60
2022-12-01T10:05:08.124Z,2.60
2022-12-01T10:07:40.903Z,2.70
2022-12-01T10:10:18.110Z,2.70
2022-12-01T10:12:48.622Z,2.70
2022-12-01T10:15:26.500Z,2.60
2022-12-01T10:18:09.577Z,2.60
2022-12-01T10:20:45.165Z,2.60
2022-12-01T10:23:34.989Z,2.60
2022-12-01T10:26:15.329Z,2.60
2022-12-01T10:28:54.349Z,2.60
2022-12-01T10:31:27.535Z,2.60
2022-12-01T10:34:06.349Z,2.60
2022-12-01T10:36:35.530Z,2.60
2022-12-01T10:39:06.555Z,2.60
2022-12-01T10:41:37.804Z,2.60
2022-12-01T10:44:08.420Z,2.60
2022-12-01T10:46:43.156Z,2.60
2022-12-01T10:49:14.479Z,2.70
2022-12-01T10:51:54.809Z,2.70
2022-12-01T10:54:24.140Z,2.70
2022-12-01T10:56:58.041Z,2.70
2022-12-01T10:59:33.833Z,2.80
2022-12-01T11:02:03.599Z,2.90
2022-12-01T11:04:45.403Z,2.90
2022-12-01T11:07:19.581Z,2.80
2022-12-01T11:09:56.067Z,2.90
2022-12-01T11:12:25.111Z,3.00
2022-12-01T11:14:55.416Z,3.10
2022-12-01T11:17:49.431Z,3.00
2022-12-01T11:20:28.872Z,3.10
2022-12-01T11:23:28.337Z,3.20
2022-12-01T11:26:07.847Z,3.10
2022-12-01T11:28:37.767Z,3.10
2022-12-01T11:31:10.953Z,3.10
2022-12-01T11:33:46.215Z,3.10
2022-12-01T11:36:24.479Z,3.10
2022-12-01T11:38:57.743Z,3.00
2022-12-01T11:41:36.720Z,3.00
2022-12-01T11:44:22.544Z,2.90
2022-12-01T11:47:07.792Z,2.80
2022-12-01T11:49:47.438Z,2.90
2022-12-01T11:52:25.185Z,2.90
2022-12-01T11:54:58.465Z,3.00
2022-12-01T11:57:34.225Z,3.00
2022-12-01T12:00:05.070Z,3.10
2022-12-01T12:02:43.340Z,3.00
2022-12-01T12:05:45.426Z,3.10
2022-12-01T12:08:27.487Z,3.10
2022-12-01T12:11:06.131Z,3.20
2022-12-01T12:13:57.822Z,3.10
2022-12-01T12:16:38.964Z,3.10
2022-12-01T12:19:33.734Z,3.10
2022-12-01T12:22:18.981Z,3.20
2022-12-01T12:24:59.186Z,3.10
2022-12-01T12:27:38.731Z,3.20
2022-12-01T12:30:19.592Z,3.10
2022-12-01T12:33:26.562Z,3.10
2022-12-01T12:36:04.198Z,3.10
2022-12-01T12:38:47.745Z,3.20
2022-12-01T12:41:29.559Z,3.30
2022-12-01T12:44:18.575Z,3.40
2022-12-01T12:46:54.258Z,3.50
2022-12-01T12:49:33.052Z,3.50
2022-12-01T12:52:08.663Z,3.50
2022-12-01T12:54:44.903Z,3.40
2022-12-01T12:57:21.934Z,3.50
2022-12-01T12:59:54.629Z,3.40
2022-12-01T13:02:28.271Z,3.40
2022-12-01T13:05:02.279Z,3.50
2022-12-01T13:07:37.876Z,3.40
2022-12-01T13:10:14.914Z,3.40
2022-12-01T13:12:52.520Z,3.50
2022-12-01T13:15:22.580Z,3.40
2022-12-01T13:17:54.488Z,3.40
2022-12-01T13:20:27.645Z,3.50
2022-12-01T13:22:58.899Z,3.40
2022-12-01T13:25:30.212Z,3.50
2022-12-01T13:28:01.460Z,3.50
2022-12-01T13:30:30.147Z,3.50
2022-12-01T13:33:03.515Z,3.60
2022-12-01T13:35:38.501Z,3.60
2022-12-01T13:38:24.745Z,3.70
2022-12-01T13:41:11.549Z,3.70
2022-12-01T13:43:57.907Z,3.70
2022-12-01T13:46:30.955Z,3.80
2022-12-01T13:49:00.498Z,3.70
2022-12-01T13:51:49.258Z,3.60
2022-12-01T13:54:30.877Z,3.70
2022-12-01T13:57:07.742Z,3.80
2022-12-01T14:00:07.166Z,3.90
2022-12-01T14:02:37.116Z,3.80
2022-12-01T14:05:45.291Z,3.90
2022-12-01T14:08:23.430Z,3.90
2022-12-01T14:10:57.786Z,3.80
2022-12-01T14:13:27.199Z,3.80
2022-12-01T14:15:58.731Z,3.80
2022-12-01T14:18:37.604Z,3.70
2022-12-01T14:21:08.816Z,3.70
2022-12-01T14:23:39.632Z,3.80
2022-12-01T14:26:20.488Z,3.70
2022-12-01T14:29:29.392Z,3.60
2022-12-01T14:32:26.962Z,3.60
2022-12-01T14:35:03.905Z,3.50
2022-12-01T14:37:40.547Z,3.50
2022-12-01T14:40:15.215Z,3.50
2022-12-01T14:43:02.883Z,3.50
2022-12-01T14:45:36.317Z,3.50
2022-12-01T14:48:09.351Z,3.50
2022-12-01T14:50:46.381Z,3.50
2022-12-01T14:53:25.505Z,3.50
2022-12-01T14:55:57.542Z,3.60
2022-12-01T14:58:28.458Z,3.40
2022-12-01T15:01:03.346Z,3.40
2022-12-01T15:03:36.984Z,3.50
2022-12-01T15:06:05.498Z,3.50
2022-12-01T15:08:58.174Z,3.40
2022-12-01T15:11:32.188Z,3.40
2022-12-01T15:14:03.124Z,3.30
2022-12-01T15:16:33.028Z,3.40
2022-12-01T15:19:02.440Z,3.40
2022-12-01T15:21:34.914Z,3.40
2022-12-01T15:24:04.733Z,3.40
2022-12-01T15:26:36.244Z,3.30
2022-12-01T15:29:17.438Z,3.30
2022-12-01T15:31:48.464Z,3.20
2022-12-01T15:34:20.103Z,3.20
2022-12-01T15:36:49.459Z,3.20
2022-12-01T15:39:19.682Z,3.10
2022-12-01T15:41:55.390Z,3.00
2022-12-01T15:44:29.884Z,3.00
2022-12-01T15:46:58.052Z,3.10
2022-12-01T15:49:30.018Z,3.10
2022-12-01T15:52:07.864Z,3.10
2022-12-01T15:54:37.124Z,3.10
2022-12-01T15:57:06.149Z,3.10
2022-12-01T15:59:38.548Z,3.00
2022-12-01T16:02:18.954Z,3.00
2022-12-01T16:04:49.723Z,3.00
2022-12-01T16:07:18.126Z,2.90
2022-12-01T16:09:58.210Z,3.00
2022-12-01T16:12:27.782Z,2.90
2022-12-01T16:14:58.285Z,2.90
2022-12-01T16:17:27.126Z,2.90
2022-12-01T16:20:31.698Z,2.80
2022-12-01T16:23:04.127Z,2.80
2022-12-01T16:25:35.956Z,2.80
2022-12-01T16:28:07.966Z,2.80
2022-12-01T16:30:38.173Z,2.90
2022-12-01T16:33:14.946Z,2.90
2022-12-01T16:35:43.138Z,2.90
2022-12-01T16:38:20.560Z,2.80
2022-12-01T16:40:50.212Z,2.80
2022-12-01T16:43:20.548Z,2.80
2022-12-01T16:45:52.758Z,2.80
2022-12-01T16:48:21.268Z,2.70
2022-12-01T16:50:50.171Z,2.70
2022-12-01T16:53:21.721Z,2.70
2022-12-01T16:55:53.450Z,2.80
2022-12-01T16:58:21.717Z,2.70
2022-12-01T17:00:52.695Z,2.80
2022-12-01T17:03:25.835Z,2.70
2022-12-01T17:05:54.645Z,2.80
2022-12-01T17:08:24.388Z,2.80
2022-12-01T17:10:55.000Z,2.70
2022-12-01T17:13:24.179Z,2.70
2022-12-01T17:15:54.723Z,2.70
2022-12-01T17:18:24.569Z,2.80
2022-12-01T17:20:59.808Z,2.70
2022-12-01T17:23:29.538Z,2.70
2022-12-01T17:25:57.555Z,2.60
2022-12-01T17:28:27.712Z,2.70
2022-12-01T17:30:55.872Z,2.70
2022-12-01T17:33:23.970Z,2.70
2022-12-01T17:35:52.451Z,2.70
2022-12-01T17:38:20.562Z,2.70
2022-12-01T17:41:01.424Z,2.70
2022-12-01T17:43:29.522Z,2.70
2022-12-01T17:45:58.183Z,2.70
2022-12-01T17:48:26.379Z,2.70
2022-12-01T17:50:54.498Z,2.60
2022-12-01T17:53:22.628Z,2.60
2022-12-01T17:55:50.760Z,2.60
2022-12-01T17:58:21.790Z,2.60
2022-12-01T18:00:50.668Z,2.60
2022-12-01T18:03:19.378Z,2.60
2022-12-01T18:05:56.109Z,2.60
2022-12-01T18:08:28.472Z,2.60
2022-12-01T18:10:56.737Z,2.60
2022-12-01T18:13:28.437Z,2.70
2022-12-01T18:15:56.615Z,2.70
2022-12-01T18:18:24.775Z,2.70
2022-12-01T18:20:53.236Z,2.60
2022-12-01T18:23:21.428Z,2.70
2022-12-01T18:25:49.616Z,2.70
2022-12-01T18:28:17.716Z,2.60
2022-12-01T18:30:47.275Z,2.60
2022-12-01T18:33:15.537Z,2.70
2022-12-01T18:35:44.877Z,2.70
2022-12-01T18:38:12.928Z,2.80
2022-12-01T18:40:41.005Z,2.80
2022-12-01T18:43:09.136Z,2.80
2022-12-01T18:45:44.679Z,2.80
2022-12-01T18:48:14.132Z,2.80
2022-12-01T18:50:43.490Z,2.80
2022-12-01T18:53:11.619Z,2.80
2022-12-01T18:55:40.272Z,2.80
2022-12-01T18:58:08.987Z,2.80
2022-12-01T19:00:37.326Z,2.80
2022-12-01T19:03:05.693Z,2.80
2022-12-01T19:05:41.401Z,2.80
2022-12-01T19:08:09.735Z,2.80
2022-12-01T19:10:37.951Z,2.80
2022-12-01T19:13:06.078Z,2.80
2022-12-01T19:15:37.347Z,2.80
2022-12-01T19:18:05.655Z,2.70
2022-12-01T19:20:39.327Z,2.80
2022-12-01T19:23:07.402Z,2.80
2022-12-01T19:25:37.875Z,2.80
2022-12-01T19:28:06.015Z,2.80
2022-12-01T19:30:34.182Z,2.80
2022-12-01T19:33:02.764Z,2.80
2022-12-01T19:35:30.852Z,2.90
2022-12-01T19:38:01.468Z,2.80
2022-12-01T19:40:29.705Z,2.80
2022-12-01T19:42:57.820Z,2.80
2022-12-01T19:45:28.009Z,2.70
2022-12-01T19:47:56.019Z,2.80
2022-12-01T19:50:27.065Z,2.90
2022-12-01T19:52:55.157Z,2.80
2022-12-01T19:55:24.649Z,2.80
2022-12-01T19:57:53.532Z,2.80
2022-12-01T20:00:23.023Z,2.80
2022-12-01T20:02:51.168Z,2.80
2022-12-01T20:05:19.595Z,2.80
2022-12-01T20:07:48.147Z,2.90
2022-12-01T20:10:20.181Z,2.90
2022-12-01T20:12:49.940Z,2.90
2022-12-01T20:15:18.388Z,2.90
2022-12-01T20:17:50.292Z,2.90
2022-12-01T20:20:18.401Z,2.80
2022-12-01T20:22:47.037Z,2.90
2022-12-01T20:25:15.075Z,2.90
2022-12-01T20:27:45.457Z,2.90
2022-12-01T20:30:16.314Z,2.80
2022-12-01T20:32:44.378Z,2.80
2022-12-01T20:35:13.266Z,2.80
2022-12-01T20:37:42.712Z,2.80
2022-12-01T20:40:11.914Z,2.80
2022-12-01T20:42:39.988Z,2.70
2022-12-01T20:45:08.551Z,2.80
2022-12-01T20:47:38.722Z,2.70
2022-12-01T20:50:07.692Z,2.70
2022-12-01T20:52:39.035Z,2.70
2022-12-01T20:55:08.414Z,2.70
2022-12-01T20:57:36.504Z,2.70
2022-12-01T21:00:07.839Z,2.70
2022-12-01T21:02:37.758Z,2.80
2022-12-01T21:05:06.858Z,2.80
2022-12-01T21:07:34.967Z,2.70
2022-12-01T21:10:03.572Z,2.80
2022-12-01T21:12:50.336Z,2.80
2022-12-01T21:15:24.883Z,2.80
2022-12-01T21:17:57.798Z,2.80
2022-12-01T21:20:29.489Z,2.80
2022-12-01T21:23:03.500Z,2.80
2022-12-01T21:25:31.736Z,2.80
2022-12-01T21:28:03.613Z,2.80
2022-12-01T21:30:31.878Z,2.90
2022-12-01T21:33:20.305Z,2.90
2022-12-01T21:35:51.414Z,2.80
2022-12-01T21:38:22.163Z,2.80
2022-12-01T21:40:50.471Z,2.80
2022-12-01T21:43:21.981Z,2.90
2022-12-01T21:45:53.653Z,2.80
2022-12-01T21:48:24.132Z,2.80
2022-12-01T21:50:58.805Z,2.90
2022-12-01T21:53:33.958Z,2.90
2022-12-01T21:56:02.006Z,2.90
2022-12-01T21:58:34.439Z,2.90
2022-12-01T22:01:03.662Z,2.90
2022-12-01T22:03:34.942Z,2.80
2022-12-01T22:06:29.449Z,2.80
2022-12-01T22:09:03.017Z,2.80
2022-12-01T22:11:32.142Z,2.80
2022-12-01T22:14:13.301Z,2.80
2022-12-01T22:16:43.656Z,2.80
2022-12-01T22:19:28.368Z,2.80
2022-12-01T22:22:04.787Z,2.80
2022-12-01T22:24:41.031Z,2.80
2022-12-01T22:27:28.218Z,2.80
2022-12-01T22:29:59.783Z,2.80
2022-12-01T22:32:45.462Z,2.80
2022-12-01T22:35:27.818Z,2.80
2022-12-01T22:38:00.349Z,2.70
2022-12-01T22:40:37.420Z,2.70
2022-12-01T22:43:23.523Z,2.70
2022-12-01T22:46:11.718Z,2.70
2022-12-01T22:48:41.510Z,2.70
2022-12-01T22:51:22.275Z,2.70
2022-12-01T22:53:52.847Z,2.70
2022-12-01T22:56:38.234Z,2.70
2022-12-01T22:59:16.011Z,2.70
2022-12-01T23:01:49.492Z,2.70
2022-12-01T23:04:24.217Z,2.70
2022-12-01T23:07:08.749Z,2.70
2022-12-01T23:09:39.857Z,2.70
2022-12-01T23:12:25.955Z,2.70
2022-12-01T23:14:57.456Z,2.70
2022-12-01T23:17:33.433Z,2.60
2022-12-01T23:20:24.875Z,2.60
2022-12-01T23:22:56.276Z,2.60
2022-12-01T23:25:25.759Z,2.60
2022-12-01T23:28:02.041Z,2.60
2022-12-01T23:30:30.398Z,2.50
2022-12-01T23:33:11.836Z,2.50
2022-12-01T23:35:45.042Z,2.50
2022-12-01T23:38:19.843Z,2.50
2022-12-01T23:40:48.830Z,2.50
2022-12-01T23:43:22.536Z,2.40
2022-12-01T23:45:53.700Z,2.50
2022-12-01T23:48:24.156Z,2.50
2022-12-01T23:50:54.490Z,2.50
2022-12-01T23:53:29.978Z,2.50
2022-12-01T23:56:04.780Z,2.40
2022-12-01T23:58:33.386Z,2.40
